sensor_id;sensor_type;location;lat;lon;timestamp;P1;durP1;ratioP1;P2;durP2;ratioP2
21569;SDS011;57598;50.888;4.746;2023-06-24T00:00:31;50.75;;;46.55;;
21569;SDS011;57598;50.888;4.746;2023-06-24T00:02:58;51.35;;;47.15;;
21569;SDS011;57598;50.888;4.746;2023-06-24T00:05:28;51.25;;;47.08;;
21569;SDS011;57598;50.888;4.746;2023-06-24T00:07:56;50.20;;;46.00;;
21569;SDS011;57598;50.888;4.746;2023-06-24T00:10:27;50.47;;;46.25;;
21569;SDS011;57598;50.888;4.746;2023-06-24T00:12:54;50.25;;;46.05;;
21569;SDS011;57598;50.888;4.746;2023-06-24T00:15:21;53.13;;;48.72;;
21569;SDS011;57598;50.888;4.746;2023-06-24T00:17:48;51.97;;;47.63;;
21569;SDS011;57598;50.888;4.746;2023-06-24T00:20:15;52.17;;;47.88;;
21569;SDS011;57598;50.888;4.746;2023-06-24T00:22:46;51.67;;;47.38;;
21569;SDS011;57598;50.888;4.746;2023-06-24T00:25:14;50.80;;;46.60;;
21569;SDS011;57598;50.888;4.746;2023-06-24T00:27:41;50.97;;;46.78;;
21569;SDS011;57598;50.888;4.746;2023-06-24T00:30:09;51.85;;;47.55;;
21569;SDS011;57598;50.888;4.746;2023-06-24T00:32:36;52.70;;;48.30;;
21569;SDS011;57598;50.888;4.746;2023-06-24T00:35:03;51.60;;;47.38;;
21569;SDS011;57598;50.888;4.746;2023-06-24T00:37:31;53.58;;;49.17;;
21569;SDS011;57598;50.888;4.746;2023-06-24T00:40:00;52.53;;;48.13;;
21569;SDS011;57598;50.888;4.746;2023-06-24T00:42:28;51.42;;;47.03;;
21569;SDS011;57598;50.888;4.746;2023-06-24T00:44:55;52.90;;;48.13;;
21569;SDS011;57598;50.888;4.746;2023-06-24T00:47:22;52.03;;;47.58;;
21569;SDS011;57598;50.888;4.746;2023-06-24T00:49:50;52.03;;;47.63;;
21569;SDS011;57598;50.888;4.746;2023-06-24T00:52:16;52.38;;;47.30;;
21569;SDS011;57598;50.888;4.746;2023-06-24T00:54:44;52.42;;;47.92;;
21569;SDS011;57598;50.888;4.746;2023-06-24T00:57:12;51.03;;;46.63;;
21569;SDS011;57598;50.888;4.746;2023-06-24T00:59:39;52.35;;;47.85;;
21569;SDS011;57598;50.888;4.746;2023-06-24T01:02:09;52.42;;;47.92;;
21569;SDS011;57598;50.888;4.746;2023-06-24T01:04:37;52.17;;;47.67;;
21569;SDS011;57598;50.888;4.746;2023-06-24T01:07:04;53.65;;;49.05;;
21569;SDS011;57598;50.888;4.746;2023-06-24T01:09:32;52.38;;;47.88;;
21569;SDS011;57598;50.888;4.746;2023-06-24T01:11:59;53.67;;;49.08;;
21569;SDS011;57598;50.888;4.746;2023-06-24T01:14:28;53.03;;;48.45;;
21569;SDS011;57598;50.888;4.746;2023-06-24T01:16:56;52.70;;;48.20;;
21569;SDS011;57598;50.888;4.746;2023-06-24T01:19:34;53.28;;;48.67;;
21569;SDS011;57598;50.888;4.746;2023-06-24T01:25:40;51.20;;;46.75;;
21569;SDS011;57598;50.888;4.746;2023-06-24T01:28:30;53.78;;;49.17;;
21569;SDS011;57598;50.888;4.746;2023-06-24T01:31:22;51.83;;;47.33;;
21569;SDS011;57598;50.888;4.746;2023-06-24T01:34:01;53.70;;;49.10;;
21569;SDS011;57598;50.888;4.746;2023-06-24T01:36:38;53.30;;;48.70;;
21569;SDS011;57598;50.888;4.746;2023-06-24T01:39:10;52.58;;;48.05;;
21569;SDS011;57598;50.888;4.746;2023-06-24T01:41:54;51.63;;;47.20;;
21569;SDS011;57598;50.888;4.746;2023-06-24T01:44:25;54.33;;;49.63;;
21569;SDS011;57598;50.888;4.746;2023-06-24T01:46:55;52.42;;;47.92;;
21569;SDS011;57598;50.888;4.746;2023-06-24T01:49:25;52.67;;;48.08;;
21569;SDS011;57598;50.888;4.746;2023-06-24T01:51:55;51.78;;;47.28;;
21569;SDS011;57598;50.888;4.746;2023-06-24T01:54:25;52.55;;;47.95;;
21569;SDS011;57598;50.888;4.746;2023-06-24T01:56:54;53.10;;;48.50;;
21569;SDS011;57598;50.888;4.746;2023-06-24T01:59:25;52.53;;;47.90;;
21569;SDS011;57598;50.888;4.746;2023-06-24T02:01:56;53.70;;;49.03;;
21569;SDS011;57598;50.888;4.746;2023-06-24T02:04:24;53.92;;;49.13;;
21569;SDS011;57598;50.888;4.746;2023-06-24T02:06:56;54.00;;;49.40;;
21569;SDS011;57598;50.888;4.746;2023-06-24T02:09:24;55.85;;;50.80;;
21569;SDS011;57598;50.888;4.746;2023-06-24T02:11:53;52.67;;;48.08;;
21569;SDS011;57598;50.888;4.746;2023-06-24T02:14:22;53.00;;;48.33;;
21569;SDS011;57598;50.888;4.746;2023-06-24T02:16:50;53.22;;;48.60;;
21569;SDS011;57598;50.888;4.746;2023-06-24T02:19:22;51.85;;;47.25;;
21569;SDS011;57598;50.888;4.746;2023-06-24T02:21:52;53.17;;;48.58;;
21569;SDS011;57598;50.888;4.746;2023-06-24T02:24:20;55.65;;;50.75;;
21569;SDS011;57598;50.888;4.746;2023-06-24T02:26:48;54.45;;;49.55;;
21569;SDS011;57598;50.888;4.746;2023-06-24T02:29:15;53.10;;;48.50;;
21569;SDS011;57598;50.888;4.746;2023-06-24T02:31:44;52.92;;;48.35;;
21569;SDS011;57598;50.888;4.746;2023-06-24T02:34:11;52.40;;;47.90;;
21569;SDS011;57598;50.888;4.746;2023-06-24T02:36:40;52.20;;;47.65;;
21569;SDS011;57598;50.888;4.746;2023-06-24T02:39:07;52.65;;;48.05;;
21569;SDS011;57598;50.888;4.746;2023-06-24T02:41:34;54.10;;;49.40;;
21569;SDS011;57598;50.888;4.746;2023-06-24T02:44:01;51.65;;;47.15;;
21569;SDS011;57598;50.888;4.746;2023-06-24T02:46:28;52.75;;;48.15;;
21569;SDS011;57598;50.888;4.746;2023-06-24T02:48:56;53.70;;;49.10;;
21569;SDS011;57598;50.888;4.746;2023-06-24T02:51:24;52.70;;;48.10;;
21569;SDS011;57598;50.888;4.746;2023-06-24T02:53:53;51.97;;;47.45;;
21569;SDS011;57598;50.888;4.746;2023-06-24T02:56:23;52.70;;;48.10;;
21569;SDS011;57598;50.888;4.746;2023-06-24T02:58:53;51.90;;;47.40;;
21569;SDS011;57598;50.888;4.746;2023-06-24T03:01:21;50.85;;;46.45;;
21569;SDS011;57598;50.888;4.746;2023-06-24T03:03:51;53.47;;;48.90;;
21569;SDS011;57598;50.888;4.746;2023-06-24T03:06:19;51.67;;;47.17;;
21569;SDS011;57598;50.888;4.746;2023-06-24T03:08:47;51.67;;;47.17;;
21569;SDS011;57598;50.888;4.746;2023-06-24T03:11:16;52.28;;;47.67;;
21569;SDS011;57598;50.888;4.746;2023-06-24T03:13:43;52.72;;;48.15;;
21569;SDS011;57598;50.888;4.746;2023-06-24T03:16:10;51.05;;;46.65;;
21569;SDS011;57598;50.888;4.746;2023-06-24T03:18:39;51.90;;;47.40;;
21569;SDS011;57598;50.888;4.746;2023-06-24T03:21:07;52.40;;;47.90;;
21569;SDS011;57598;50.888;4.746;2023-06-24T03:23:34;58.75;;;53.80;;
21569;SDS011;57598;50.888;4.746;2023-06-24T03:26:01;53.40;;;48.80;;
21569;SDS011;57598;50.888;4.746;2023-06-24T03:28:30;55.00;;;50.20;;
21569;SDS011;57598;50.888;4.746;2023-06-24T03:30:57;51.90;;;47.40;;
21569;SDS011;57598;50.888;4.746;2023-06-24T03:33:25;51.67;;;47.17;;
21569;SDS011;57598;50.888;4.746;2023-06-24T03:35:52;51.08;;;46.67;;
21569;SDS011;57598;50.888;4.746;2023-06-24T03:38:20;50.25;;;45.92;;
21569;SDS011;57598;50.888;4.746;2023-06-24T03:40:47;51.13;;;46.72;;
21569;SDS011;57598;50.888;4.746;2023-06-24T03:43:14;51.38;;;46.97;;
21569;SDS011;57598;50.888;4.746;2023-06-24T03:45:43;51.85;;;47.45;;
21569;SDS011;57598;50.888;4.746;2023-06-24T03:48:10;50.25;;;46.05;;
21569;SDS011;57598;50.888;4.746;2023-06-24T03:50:37;49.97;;;45.83;;
21569;SDS011;57598;50.888;4.746;2023-06-24T03:53:04;51.00;;;46.80;;
21569;SDS011;57598;50.888;4.746;2023-06-24T03:55:32;49.70;;;45.58;;
21569;SDS011;57598;50.888;4.746;2023-06-24T03:57:59;50.10;;;45.88;;
21569;SDS011;57598;50.888;4.746;2023-06-24T04:00:26;51.05;;;46.85;;
21569;SDS011;57598;50.888;4.746;2023-06-24T04:02:54;49.63;;;45.63;;
21569;SDS011;57598;50.888;4.746;2023-06-24T04:05:22;49.55;;;45.55;;
21569;SDS011;57598;50.888;4.746;2023-06-24T04:07:50;49.10;;;45.10;;
21569;SDS011;57598;50.888;4.746;2023-06-24T04:10:18;48.80;;;44.80;;
21569;SDS011;57598;50.888;4.746;2023-06-24T04:12:45;49.50;;;45.50;;
21569;SDS011;57598;50.888;4.746;2023-06-24T04:15:12;48.53;;;44.63;;
21569;SDS011;57598;50.888;4.746;2023-06-24T04:17:39;50.15;;;46.15;;
21569;SDS011;57598;50.888;4.746;2023-06-24T04:20:08;49.20;;;45.20;;
21569;SDS011;57598;50.888;4.746;2023-06-24T04:22:36;49.10;;;45.20;;
21569;SDS011;57598;50.888;4.746;2023-06-24T04:25:04;50.17;;;46.13;;
21569;SDS011;57598;50.888;4.746;2023-06-24T04:27:32;47.97;;;44.10;;
21569;SDS011;57598;50.888;4.746;2023-06-24T04:29:59;48.65;;;44.85;;
21569;SDS011;57598;50.888;4.746;2023-06-24T04:32:26;47.63;;;43.92;;
21569;SDS011;57598;50.888;4.746;2023-06-24T04:34:53;46.50;;;42.88;;
21569;SDS011;57598;50.888;4.746;2023-06-24T04:37:22;47.35;;;43.72;;
21569;SDS011;57598;50.888;4.746;2023-06-24T04:39:49;47.20;;;43.60;;
21569;SDS011;57598;50.888;4.746;2023-06-24T04:42:16;46.33;;;42.72;;
21569;SDS011;57598;50.888;4.746;2023-06-24T04:44:43;44.90;;;41.50;;
21569;SDS011;57598;50.888;4.746;2023-06-24T04:47:10;59.63;;;55.08;;
21569;SDS011;57598;50.888;4.746;2023-06-24T04:49:38;45.15;;;41.75;;
21569;SDS011;57598;50.888;4.746;2023-06-24T04:52:06;45.20;;;41.80;;
21569;SDS011;57598;50.888;4.746;2023-06-24T04:54:34;44.53;;;41.22;;
21569;SDS011;57598;50.888;4.746;2023-06-24T04:57:01;44.50;;;41.20;;
21569;SDS011;57598;50.888;4.746;2023-06-24T04:59:29;44.30;;;41.10;;
21569;SDS011;57598;50.888;4.746;2023-06-24T05:01:56;44.00;;;40.80;;
21569;SDS011;57598;50.888;4.746;2023-06-24T05:04:23;45.10;;;41.88;;
21569;SDS011;57598;50.888;4.746;2023-06-24T05:06:50;43.97;;;40.88;;
21569;SDS011;57598;50.888;4.746;2023-06-24T05:09:17;44.13;;;41.03;;
21569;SDS011;57598;50.888;4.746;2023-06-24T05:11:45;44.42;;;41.22;;
21569;SDS011;57598;50.888;4.746;2023-06-24T05:14:12;43.80;;;40.70;;
21569;SDS011;57598;50.888;4.746;2023-06-24T05:16:39;43.33;;;40.33;;
21569;SDS011;57598;50.888;4.746;2023-06-24T05:19:06;42.53;;;39.45;;
21569;SDS011;57598;50.888;4.746;2023-06-24T05:21:33;42.80;;;39.80;;
21569;SDS011;57598;50.888;4.746;2023-06-24T05:24:00;44.67;;;41.55;;
21569;SDS011;57598;50.888;4.746;2023-06-24T05:26:27;42.92;;;39.92;;
21569;SDS011;57598;50.888;4.746;2023-06-24T05:28:56;42.65;;;39.65;;
21569;SDS011;57598;50.888;4.746;2023-06-24T05:31:23;41.03;;;38.33;;
21569;SDS011;57598;50.888;4.746;2023-06-24T05:33:50;41.53;;;38.50;;
21569;SDS011;57598;50.888;4.746;2023-06-24T05:36:17;40.42;;;37.83;;
21569;SDS011;57598;50.888;4.746;2023-06-24T05:38:44;40.00;;;37.40;;
21569;SDS011;57598;50.888;4.746;2023-06-24T05:41:11;40.15;;;37.13;;
21569;SDS011;57598;50.888;4.746;2023-06-24T05:43:38;38.22;;;35.83;;
21569;SDS011;57598;50.888;4.746;2023-06-24T05:46:06;37.83;;;35.53;;
21569;SDS011;57598;50.888;4.746;2023-06-24T05:48:33;37.13;;;34.92;;
21569;SDS011;57598;50.888;4.746;2023-06-24T05:51:00;34.50;;;32.58;;
21569;SDS011;57598;50.888;4.746;2023-06-24T05:53:27;30.90;;;29.20;;
21569;SDS011;57598;50.888;4.746;2023-06-24T05:55:54;27.95;;;26.35;;
21569;SDS011;57598;50.888;4.746;2023-06-24T05:58:21;26.45;;;24.95;;
21569;SDS011;57598;50.888;4.746;2023-06-24T06:00:48;23.42;;;22.13;;
21569;SDS011;57598;50.888;4.746;2023-06-24T06:03:16;21.35;;;20.15;;
21569;SDS011;57598;50.888;4.746;2023-06-24T06:05:43;21.63;;;20.42;;
21569;SDS011;57598;50.888;4.746;2023-06-24T06:08:10;21.50;;;20.30;;
21569;SDS011;57598;50.888;4.746;2023-06-24T06:10:37;22.63;;;21.33;;
21569;SDS011;57598;50.888;4.746;2023-06-24T06:13:04;21.83;;;20.52;;
21569;SDS011;57598;50.888;4.746;2023-06-24T06:15:31;20.35;;;19.25;;
21569;SDS011;57598;50.888;4.746;2023-06-24T06:17:58;20.55;;;19.38;;
21569;SDS011;57598;50.888;4.746;2023-06-24T06:20:26;21.45;;;19.95;;
21569;SDS011;57598;50.888;4.746;2023-06-24T06:22:53;20.75;;;19.55;;
21569;SDS011;57598;50.888;4.746;2023-06-24T06:25:20;19.00;;;17.90;;
21569;SDS011;57598;50.888;4.746;2023-06-24T06:27:48;17.90;;;16.90;;
21569;SDS011;57598;50.888;4.746;2023-06-24T06:30:15;18.35;;;17.33;;
21569;SDS011;57598;50.888;4.746;2023-06-24T06:32:42;18.25;;;16.90;;
21569;SDS011;57598;50.888;4.746;2023-06-24T06:35:09;18.08;;;17.02;;
21569;SDS011;57598;50.888;4.746;2023-06-24T06:37:38;18.65;;;17.55;;
21569;SDS011;57598;50.888;4.746;2023-06-24T06:40:05;19.58;;;18.38;;
21569;SDS011;57598;50.888;4.746;2023-06-24T06:42:33;17.95;;;16.95;;
21569;SDS011;57598;50.888;4.746;2023-06-24T06:45:00;17.98;;;16.88;;
21569;SDS011;57598;50.888;4.746;2023-06-24T06:47:28;17.15;;;16.15;;
21569;SDS011;57598;50.888;4.746;2023-06-24T06:49:54;18.20;;;17.10;;
21569;SDS011;57598;50.888;4.746;2023-06-24T06:52:21;17.17;;;16.13;;
21569;SDS011;57598;50.888;4.746;2023-06-24T06:54:50;16.73;;;15.73;;
21569;SDS011;57598;50.888;4.746;2023-06-24T06:57:17;18.38;;;17.17;;
21569;SDS011;57598;50.888;4.746;2023-06-24T06:59:44;17.27;;;16.27;;
21569;SDS011;57598;50.888;4.746;2023-06-24T07:02:11;16.52;;;15.52;;
21569;SDS011;57598;50.888;4.746;2023-06-24T07:04:38;16.70;;;15.70;;
21569;SDS011;57598;50.888;4.746;2023-06-24T07:07:05;15.25;;;14.35;;
21569;SDS011;57598;50.888;4.746;2023-06-24T07:09:32;19.90;;;18.70;;
21569;SDS011;57598;50.888;4.746;2023-06-24T07:12:00;16.92;;;15.88;;
21569;SDS011;57598;50.888;4.746;2023-06-24T07:14:27;16.63;;;15.60;;
21569;SDS011;57598;50.888;4.746;2023-06-24T07:16:54;16.60;;;15.55;;
21569;SDS011;57598;50.888;4.746;2023-06-24T07:19:21;15.18;;;14.20;;
21569;SDS011;57598;50.888;4.746;2023-06-24T07:21:48;16.75;;;15.68;;
21569;SDS011;57598;50.888;4.746;2023-06-24T07:24:15;15.90;;;15.00;;
21569;SDS011;57598;50.888;4.746;2023-06-24T07:26:42;17.00;;;15.98;;
21569;SDS011;57598;50.888;4.746;2023-06-24T07:29:11;16.92;;;15.93;;
21569;SDS011;57598;50.888;4.746;2023-06-24T07:31:38;17.20;;;16.00;;
21569;SDS011;57598;50.888;4.746;2023-06-24T07:34:05;15.95;;;15.02;;
21569;SDS011;57598;50.888;4.746;2023-06-24T07:36:32;19.10;;;17.30;;
21569;SDS011;57598;50.888;4.746;2023-06-24T07:38:59;17.20;;;16.08;;
21569;SDS011;57598;50.888;4.746;2023-06-24T07:41:26;18.65;;;17.30;;
21569;SDS011;57598;50.888;4.746;2023-06-24T07:43:53;17.77;;;16.58;;
21569;SDS011;57598;50.888;4.746;2023-06-24T07:46:21;16.00;;;15.00;;
21569;SDS011;57598;50.888;4.746;2023-06-24T07:48:48;17.10;;;16.05;;
21569;SDS011;57598;50.888;4.746;2023-06-24T07:51:15;16.00;;;15.00;;
21569;SDS011;57598;50.888;4.746;2023-06-24T07:53:43;17.83;;;16.70;;
21569;SDS011;57598;50.888;4.746;2023-06-24T07:56:10;16.38;;;15.38;;
21569;SDS011;57598;50.888;4.746;2023-06-24T07:58:37;17.13;;;16.10;;
21569;SDS011;57598;50.888;4.746;2023-06-24T08:01:04;16.65;;;15.65;;
21569;SDS011;57598;50.888;4.746;2023-06-24T08:03:33;16.58;;;15.57;;
21569;SDS011;57598;50.888;4.746;2023-06-24T08:06:01;16.90;;;15.70;;
21569;SDS011;57598;50.888;4.746;2023-06-24T08:08:29;16.58;;;15.57;;
21569;SDS011;57598;50.888;4.746;2023-06-24T08:10:56;17.10;;;16.10;;
21569;SDS011;57598;50.888;4.746;2023-06-24T08:13:23;17.60;;;16.30;;
21569;SDS011;57598;50.888;4.746;2023-06-24T08:15:49;16.73;;;15.73;;
21569;SDS011;57598;50.888;4.746;2023-06-24T08:18:16;18.60;;;17.45;;
21569;SDS011;57598;50.888;4.746;2023-06-24T08:20:45;18.77;;;17.58;;
21569;SDS011;57598;50.888;4.746;2023-06-24T08:23:12;17.45;;;16.45;;
21569;SDS011;57598;50.888;4.746;2023-06-24T08:25:39;17.88;;;16.77;;
21569;SDS011;57598;50.888;4.746;2023-06-24T08:28:06;17.67;;;16.67;;
21569;SDS011;57598;50.888;4.746;2023-06-24T08:30:33;17.50;;;16.50;;
21569;SDS011;57598;50.888;4.746;2023-06-24T08:33:00;16.98;;;15.98;;
21569;SDS011;57598;50.888;4.746;2023-06-24T08:35:27;17.27;;;16.27;;
21569;SDS011;57598;50.888;4.746;2023-06-24T08:37:55;16.75;;;15.65;;
21569;SDS011;57598;50.888;4.746;2023-06-24T08:40:22;17.38;;;16.08;;
21569;SDS011;57598;50.888;4.746;2023-06-24T08:42:49;16.98;;;15.70;;
21569;SDS011;57598;50.888;4.746;2023-06-24T08:45:16;16.08;;;15.07;;
21569;SDS011;57598;50.888;4.746;2023-06-24T08:47:43;16.75;;;15.75;;
21569;SDS011;57598;50.888;4.746;2023-06-24T08:50:13;16.88;;;15.88;;
21569;SDS011;57598;50.888;4.746;2023-06-24T08:52:43;16.65;;;15.63;;
21569;SDS011;57598;50.888;4.746;2023-06-24T08:55:16;17.52;;;16.42;;
21569;SDS011;57598;50.888;4.746;2023-06-24T08:57:45;17.35;;;16.25;;
21569;SDS011;57598;50.888;4.746;2023-06-24T09:00:13;16.55;;;15.50;;
21569;SDS011;57598;50.888;4.746;2023-06-24T09:02:40;16.30;;;15.30;;
21569;SDS011;57598;50.888;4.746;2023-06-24T09:05:08;14.50;;;13.60;;
21569;SDS011;57598;50.888;4.746;2023-06-24T09:07:36;16.65;;;14.77;;
21569;SDS011;57598;50.888;4.746;2023-06-24T09:10:03;17.23;;;16.13;;
21569;SDS011;57598;50.888;4.746;2023-06-24T09:12:32;16.17;;;15.18;;
21569;SDS011;57598;50.888;4.746;2023-06-24T09:15:00;17.23;;;16.23;;
21569;SDS011;57598;50.888;4.746;2023-06-24T09:17:29;15.95;;;15.05;;
21569;SDS011;57598;50.888;4.746;2023-06-24T09:20:02;16.55;;;15.45;;
21569;SDS011;57598;50.888;4.746;2023-06-24T09:22:30;16.30;;;15.30;;
21569;SDS011;57598;50.888;4.746;2023-06-24T09:25:00;16.45;;;15.45;;
21569;SDS011;57598;50.888;4.746;2023-06-24T09:27:30;15.32;;;14.43;;
21569;SDS011;57598;50.888;4.746;2023-06-24T09:29:59;16.23;;;15.23;;
21569;SDS011;57598;50.888;4.746;2023-06-24T09:32:26;15.95;;;14.98;;
21569;SDS011;57598;50.888;4.746;2023-06-24T09:34:56;15.88;;;14.88;;
21569;SDS011;57598;50.888;4.746;2023-06-24T09:37:24;17.15;;;16.05;;
21569;SDS011;57598;50.888;4.746;2023-06-24T09:39:55;16.20;;;15.20;;
21569;SDS011;57598;50.888;4.746;2023-06-24T09:42:23;14.85;;;13.95;;
21569;SDS011;57598;50.888;4.746;2023-06-24T09:44:54;16.30;;;15.30;;
21569;SDS011;57598;50.888;4.746;2023-06-24T09:47:21;16.83;;;15.57;;
21569;SDS011;57598;50.888;4.746;2023-06-24T09:49:50;16.60;;;15.15;;
21569;SDS011;57598;50.888;4.746;2023-06-24T09:52:17;15.82;;;14.82;;
21569;SDS011;57598;50.888;4.746;2023-06-24T09:54:46;16.30;;;15.30;;
21569;SDS011;57598;50.888;4.746;2023-06-24T09:57:16;16.77;;;15.77;;
21569;SDS011;57598;50.888;4.746;2023-06-24T09:59:47;16.90;;;15.90;;
21569;SDS011;57598;50.888;4.746;2023-06-24T10:02:17;16.40;;;15.30;;
21569;SDS011;57598;50.888;4.746;2023-06-24T10:04:44;15.73;;;14.73;;
21569;SDS011;57598;50.888;4.746;2023-06-24T10:07:13;16.75;;;15.13;;
21569;SDS011;57598;50.888;4.746;2023-06-24T10:09:40;14.57;;;13.68;;
21569;SDS011;57598;50.888;4.746;2023-06-24T10:12:08;16.00;;;14.35;;
21569;SDS011;57598;50.888;4.746;2023-06-24T10:14:36;15.52;;;14.52;;
21569;SDS011;57598;50.888;4.746;2023-06-24T10:17:04;16.35;;;15.35;;
21569;SDS011;57598;50.888;4.746;2023-06-24T10:19:37;16.33;;;15.32;;
21569;SDS011;57598;50.888;4.746;2023-06-24T10:22:06;15.35;;;14.35;;
21569;SDS011;57598;50.888;4.746;2023-06-24T10:24:35;15.43;;;14.38;;
21569;SDS011;57598;50.888;4.746;2023-06-24T10:27:04;15.75;;;14.25;;
21569;SDS011;57598;50.888;4.746;2023-06-24T10:29:33;16.17;;;15.18;;
21569;SDS011;57598;50.888;4.746;2023-06-24T10:32:04;16.13;;;15.13;;
21569;SDS011;57598;50.888;4.746;2023-06-24T10:34:43;16.83;;;15.68;;
21569;SDS011;57598;50.888;4.746;2023-06-24T10:37:12;16.60;;;15.60;;
21569;SDS011;57598;50.888;4.746;2023-06-24T10:39:47;16.60;;;15.60;;
21569;SDS011;57598;50.888;4.746;2023-06-24T10:42:27;15.13;;;14.23;;
21569;SDS011;57598;50.888;4.746;2023-06-24T10:45:00;16.42;;;15.43;;
21569;SDS011;57598;50.888;4.746;2023-06-24T10:47:28;17.55;;;15.98;;
21569;SDS011;57598;50.888;4.746;2023-06-24T10:49:57;15.73;;;14.63;;
21569;SDS011;57598;50.888;4.746;2023-06-24T10:52:24;14.32;;;13.43;;
21569;SDS011;57598;50.888;4.746;2023-06-24T10:54:52;18.73;;;17.17;;
21569;SDS011;57598;50.888;4.746;2023-06-24T10:57:20;16.33;;;15.32;;
21569;SDS011;57598;50.888;4.746;2023-06-24T10:59:49;16.17;;;15.18;;
21569;SDS011;57598;50.888;4.746;2023-06-24T11:02:18;16.38;;;15.27;;
21569;SDS011;57598;50.888;4.746;2023-06-24T11:04:45;15.98;;;14.85;;
21569;SDS011;57598;50.888;4.746;2023-06-24T11:07:15;15.60;;;14.60;;
21569;SDS011;57598;50.888;4.746;2023-06-24T11:09:48;15.98;;;14.98;;
21569;SDS011;57598;50.888;4.746;2023-06-24T11:12:15;15.88;;;14.98;;
21569;SDS011;57598;50.888;4.746;2023-06-24T11:14:42;14.68;;;13.77;;
21569;SDS011;57598;50.888;4.746;2023-06-24T11:17:09;14.63;;;13.73;;
21569;SDS011;57598;50.888;4.746;2023-06-24T11:19:36;14.40;;;13.50;;
21569;SDS011;57598;50.888;4.746;2023-06-24T11:22:06;16.17;;;15.13;;
21569;SDS011;57598;50.888;4.746;2023-06-24T11:24:35;15.43;;;14.52;;
21569;SDS011;57598;50.888;4.746;2023-06-24T11:27:04;15.30;;;14.40;;
21569;SDS011;57598;50.888;4.746;2023-06-24T11:29:32;15.20;;;14.27;;
21569;SDS011;57598;50.888;4.746;2023-06-24T11:32:00;15.52;;;14.63;;
21569;SDS011;57598;50.888;4.746;2023-06-24T11:34:28;16.80;;;15.55;;
21569;SDS011;57598;50.888;4.746;2023-06-24T11:36:55;15.57;;;14.57;;
21569;SDS011;57598;50.888;4.746;2023-06-24T11:39:23;15.80;;;14.80;;
21569;SDS011;57598;50.888;4.746;2023-06-24T11:41:52;15.48;;;14.45;;
21569;SDS011;57598;50.888;4.746;2023-06-24T11:44:23;15.88;;;14.88;;
21569;SDS011;57598;50.888;4.746;2023-06-24T11:46:50;14.93;;;14.02;;
21569;SDS011;57598;50.888;4.746;2023-06-24T11:49:18;16.05;;;15.05;;
21569;SDS011;57598;50.888;4.746;2023-06-24T11:51:46;16.33;;;15.32;;
21569;SDS011;57598;50.888;4.746;2023-06-24T11:54:14;16.55;;;15.55;;
21569;SDS011;57598;50.888;4.746;2023-06-24T11:56:43;16.20;;;15.20;;
21569;SDS011;57598;50.888;4.746;2023-06-24T11:59:19;15.73;;;14.73;;
21569;SDS011;57598;50.888;4.746;2023-06-24T12:01:54;17.27;;;16.13;;
21569;SDS011;57598;50.888;4.746;2023-06-24T12:04:26;16.58;;;15.48;;
21569;SDS011;57598;50.888;4.746;2023-06-24T12:06:54;16.80;;;15.70;;
21569;SDS011;57598;50.888;4.746;2023-06-24T12:09:21;16.38;;;15.38;;
21569;SDS011;57598;50.888;4.746;2023-06-24T12:11:49;16.30;;;15.23;;
21569;SDS011;57598;50.888;4.746;2023-06-24T12:14:16;16.48;;;15.38;;
21569;SDS011;57598;50.888;4.746;2023-06-24T12:16:44;15.63;;;14.73;;
21569;SDS011;57598;50.888;4.746;2023-06-24T12:19:11;17.27;;;16.17;;
21569;SDS011;57598;50.888;4.746;2023-06-24T12:21:38;16.38;;;15.32;;
21569;SDS011;57598;50.888;4.746;2023-06-24T12:24:05;17.38;;;16.27;;
21569;SDS011;57598;50.888;4.746;2023-06-24T12:26:32;16.35;;;15.35;;
21569;SDS011;57598;50.888;4.746;2023-06-24T12:29:01;16.00;;;15.00;;
21569;SDS011;57598;50.888;4.746;2023-06-24T12:31:29;15.05;;;14.15;;
21569;SDS011;57598;50.888;4.746;2023-06-24T12:33:57;15.20;;;14.13;;
21569;SDS011;57598;50.888;4.746;2023-06-24T12:36:24;15.18;;;14.27;;
21569;SDS011;57598;50.888;4.746;2023-06-24T12:38:51;14.43;;;13.52;;
21569;SDS011;57598;50.888;4.746;2023-06-24T12:41:18;15.50;;;14.35;;
21569;SDS011;57598;50.888;4.746;2023-06-24T12:43:45;15.50;;;14.60;;
21569;SDS011;57598;50.888;4.746;2023-06-24T12:46:12;15.70;;;14.73;;
21569;SDS011;57598;50.888;4.746;2023-06-24T12:48:39;18.00;;;16.70;;
21569;SDS011;57598;50.888;4.746;2023-06-24T12:51:07;15.40;;;14.40;;
21569;SDS011;57598;50.888;4.746;2023-06-24T12:53:34;16.77;;;15.77;;
21569;SDS011;57598;50.888;4.746;2023-06-24T12:56:01;15.27;;;14.27;;
21569;SDS011;57598;50.888;4.746;2023-06-24T12:58:29;15.98;;;15.07;;
21569;SDS011;57598;50.888;4.746;2023-06-24T13:00:56;16.75;;;15.68;;
21569;SDS011;57598;50.888;4.746;2023-06-24T13:03:23;15.63;;;14.63;;
21569;SDS011;57598;50.888;4.746;2023-06-24T13:05:50;17.38;;;16.27;;
21569;SDS011;57598;50.888;4.746;2023-06-24T13:08:18;18.02;;;16.75;;
21569;SDS011;57598;50.888;4.746;2023-06-24T13:10:45;17.08;;;16.08;;
21569;SDS011;57598;50.888;4.746;2023-06-24T13:13:12;16.50;;;15.50;;
21569;SDS011;57598;50.888;4.746;2023-06-24T13:15:39;16.05;;;15.15;;
21569;SDS011;57598;50.888;4.746;2023-06-24T13:18:06;16.80;;;15.80;;
21569;SDS011;57598;50.888;4.746;2023-06-24T13:20:33;17.00;;;16.00;;
21569;SDS011;57598;50.888;4.746;2023-06-24T13:23:00;16.98;;;15.88;;
21569;SDS011;57598;50.888;4.746;2023-06-24T13:25:28;18.02;;;16.92;;
21569;SDS011;57598;50.888;4.746;2023-06-24T13:27:56;17.60;;;16.50;;
21569;SDS011;57598;50.888;4.746;2023-06-24T13:30:23;18.08;;;16.98;;
21569;SDS011;57598;50.888;4.746;2023-06-24T13:32:50;17.70;;;16.60;;
21569;SDS011;57598;50.888;4.746;2023-06-24T13:35:17;17.38;;;16.27;;
21569;SDS011;57598;50.888;4.746;2023-06-24T13:37:44;19.48;;;17.95;;
21569;SDS011;57598;50.888;4.746;2023-06-24T13:40:11;18.63;;;17.25;;
21569;SDS011;57598;50.888;4.746;2023-06-24T13:42:40;19.52;;;17.88;;
21569;SDS011;57598;50.888;4.746;2023-06-24T13:45:07;18.75;;;17.55;;
21569;SDS011;57598;50.888;4.746;2023-06-24T13:47:35;17.85;;;16.75;;
21569;SDS011;57598;50.888;4.746;2023-06-24T13:50:02;17.20;;;16.20;;
21569;SDS011;57598;50.888;4.746;2023-06-24T13:52:30;17.45;;;16.35;;
21569;SDS011;57598;50.888;4.746;2023-06-24T13:54:57;18.20;;;16.90;;
21569;SDS011;57598;50.888;4.746;2023-06-24T13:57:24;16.30;;;15.30;;
21569;SDS011;57598;50.888;4.746;2023-06-24T13:59:53;16.65;;;15.65;;
21569;SDS011;57598;50.888;4.746;2023-06-24T14:02:20;16.55;;;15.55;;
21569;SDS011;57598;50.888;4.746;2023-06-24T14:04:47;16.50;;;15.30;;
21569;SDS011;57598;50.888;4.746;2023-06-24T14:07:14;15.15;;;14.25;;
21569;SDS011;57598;50.888;4.746;2023-06-24T14:09:41;15.98;;;15.00;;
21569;SDS011;57598;50.888;4.746;2023-06-24T14:12:08;15.88;;;14.88;;
21569;SDS011;57598;50.888;4.746;2023-06-24T14:14:36;16.45;;;15.00;;
21569;SDS011;57598;50.888;4.746;2023-06-24T14:17:05;15.18;;;14.27;;
21569;SDS011;57598;50.888;4.746;2023-06-24T14:19:35;15.75;;;14.75;;
21569;SDS011;57598;50.888;4.746;2023-06-24T14:22:02;15.38;;;14.48;;
21569;SDS011;57598;50.888;4.746;2023-06-24T14:24:29;16.73;;;15.63;;
21569;SDS011;57598;50.888;4.746;2023-06-24T14:26:56;17.00;;;15.88;;
21569;SDS011;57598;50.888;4.746;2023-06-24T14:29:23;14.88;;;13.95;;